Time;durP1;ratioP1;P1;durP2;ratioP2;P2;SDS_P1;SDS_P2;PMS_P1;PMS_P2;Temp;Humidity;BMP_temperature;BMP_pressure;BME280_temperature;BME280_humidity;BME280_pressure;Samples;Min_cycle;Max_cycle;Signal;HPM_P1;HPM_P2
2022/07/08 00:00:46;;;;;;;4.45;2.50;;;21.80;99.90;;;;;;5098640;28;20024;-73
2022/07/08 00:03:12;;;;;;;4.57;2.50;;;21.70;99.90;;;;;;5093238;28;20725;-72
2022/07/08 00:05:38;;;;;;;5.30;2.53;;;21.70;99.90;;;;;;5091610;28;20031;-73
2022/07/08 00:08:04;;;;;;;9.27;2.90;;;21.70;99.90;;;;;;5092989;28;20028;-73
2022/07/08 00:10:30;;;;;;;5.78;2.65;;;21.60;99.90;;;;;;5082177;28;20416;-73
2022/07/08 00:12:56;;;;;;;9.35;3.28;;;21.50;99.90;;;;;;5085391;28;20028;-73
2022/07/08 00:15:22;;;;;;;4.25;2.30;;;21.40;99.90;;;;;;5089211;28;20020;-73
2022/07/08 00:17:48;;;;;;;8.70;2.58;;;21.40;99.90;;;;;;5089543;28;20034;-73
2022/07/08 00:20:15;;;;;;;4.55;2.58;;;21.30;99.90;;;;;;5090655;28;20028;-72
2022/07/08 00:22:41;;;;;;;4.35;2.10;;;21.20;99.90;;;;;;5088752;28;20021;-73
2022/07/08 00:25:07;;;;;;;12.50;3.38;;;21.20;99.90;;;;;;5093476;28;20469;-73
2022/07/08 00:27:33;;;;;;;5.72;2.80;;;21.10;99.90;;;;;;5090464;28;20021;-72
2022/07/08 00:29:59;;;;;;;5.75;2.67;;;21.10;99.90;;;;;;5094263;28;20031;-72
2022/07/08 00:32:24;;;;;;;7.07;2.83;;;21.10;99.90;;;;;;5095129;28;20020;-72
2022/07/08 00:34:51;;;;;;;6.10;2.53;;;21.10;99.90;;;;;;5088650;28;20033;-73
2022/07/08 00:37:17;;;;;;;6.82;2.83;;;20.90;99.90;;;;;;5079513;28;20399;-73
2022/07/08 00:39:42;;;;;;;4.05;2.33;;;20.90;99.90;;;;;;5079277;28;20024;-73
2022/07/08 00:42:08;;;;;;;6.70;2.60;;;20.80;99.90;;;;;;5084288;28;20525;-73
2022/07/08 00:44:34;;;;;;;2.90;2.10;;;20.80;99.90;;;;;;5081305;28;20111;-72
2022/07/08 00:47:00;;;;;;;5.25;2.55;;;20.70;99.90;;;;;;5086309;28;20016;-73
2022/07/08 00:49:26;;;;;;;2.85;2.22;;;20.70;99.90;;;;;;5086515;28;20021;-73
2022/07/08 00:51:52;;;;;;;3.50;2.40;;;20.70;99.90;;;;;;5087064;28;20075;-73
2022/07/08 00:54:21;;;;;;;4.85;2.50;;;20.60;99.90;;;;;;5089415;28;20111;-73
2022/07/08 00:56:47;;;;;;;6.70;2.28;;;20.60;99.90;;;;;;5089600;28;20046;-73
2022/07/08 00:59:13;;;;;;;6.68;2.25;;;20.50;99.90;;;;;;5094172;28;20461;-73
2022/07/08 01:01:39;;;;;;;6.93;2.33;;;20.50;99.90;;;;;;5093615;28;20405;-73
2022/07/08 01:04:06;;;;;;;2.75;1.85;;;20.40;99.90;;;;;;5094591;28;20028;-72
2022/07/08 01:06:32;;;;;;;6.05;2.25;;;20.40;99.90;;;;;;5094265;28;20024;-73
2022/07/08 01:08:58;;;;;;;4.63;2.03;;;20.40;99.90;;;;;;5097249;28;20027;-73
2022/07/08 01:11:26;;;;;;;8.82;3.05;;;20.30;99.90;;;;;;5089866;28;20107;-73
2022/07/08 01:13:52;;;;;;;4.28;2.20;;;20.30;99.90;;;;;;5089500;28;20450;-73
2022/07/08 01:16:18;;;;;;;3.25;1.95;;;20.30;99.90;;;;;;5090874;28;20024;-73
2022/07/08 01:18:44;;;;;;;4.70;1.90;;;20.30;99.90;;;;;;5096161;28;20027;-72
2022/07/08 01:21:11;;;;;;;7.35;2.53;;;20.20;99.90;;;;;;5091790;28;20020;-73
2022/07/08 01:23:37;;;;;;;5.05;2.58;;;20.20;99.90;;;;;;5094523;28;20416;-73
2022/07/08 01:26:11;;;;;;;5.68;2.40;;;20.20;99.90;;;;;;5096299;28;20020;-73
2022/07/08 01:28:41;;;;;;;6.20;2.38;;;20.10;99.90;;;;;;5085706;28;20473;-73
2022/07/08 01:31:07;;;;;;;4.93;1.92;;;20.10;99.90;;;;;;5079841;28;20473;-73
2022/07/08 01:33:33;;;;;;;3.90;2.33;;;20.10;99.90;;;;;;5079344;28;20024;-73
2022/07/08 01:35:59;;;;;;;6.57;1.83;;;20.10;99.90;;;;;;5094168;28;20107;-72
2022/07/08 01:38:25;;;;;;;4.63;2.03;;;20.10;99.90;;;;;;5082133;28;20027;-72
2022/07/08 01:40:50;;;;;;;7.20;2.55;;;20.10;99.90;;;;;;5088122;28;20016;-73
2022/07/08 01:43:16;;;;;;;3.53;2.38;;;20.00;99.90;;;;;;5083854;28;20029;-72
2022/07/08 01:45:42;;;;;;;4.07;2.10;;;20.00;99.90;;;;;;5089893;28;20114;-73
2022/07/08 01:48:08;;;;;;;4.43;2.33;;;19.90;99.90;;;;;;5087527;28;20410;-72
2022/07/08 01:50:34;;;;;;;3.75;2.17;;;19.90;99.90;;;;;;5090591;28;20047;-73
2022/07/08 01:53:00;;;;;;;4.85;2.65;;;19.90;99.90;;;;;;5090311;28;20024;-73
2022/07/08 01:55:26;;;;;;;7.00;2.60;;;19.80;99.90;;;;;;5093459;28;20049;-73
2022/07/08 01:57:51;;;;;;;4.80;2.20;;;19.70;99.90;;;;;;5094219;28;20074;-72
2022/07/08 02:00:18;;;;;;;3.58;2.20;;;19.60;99.90;;;;;;5094445;28;20500;-73
2022/07/08 02:02:44;;;;;;;4.32;2.00;;;19.50;99.90;;;;;;5090570;28;20032;-72
2022/07/08 02:05:10;;;;;;;4.57;2.10;;;19.50;99.90;;;;;;5090601;28;20031;-73
2022/07/08 02:07:37;;;;;;;4.70;2.15;;;19.40;99.90;;;;;;5085817;28;20024;-73
2022/07/08 02:10:04;;;;;;;4.30;2.40;;;19.40;99.90;;;;;;5083010;28;20076;-73
2022/07/08 02:12:30;;;;;;;3.60;2.08;;;19.30;99.90;;;;;;5080258;28;20055;-72
2022/07/08 02:15:07;;;;;;;2.83;2.45;;;19.30;99.90;;;;;;5095852;28;20117;-72
2022/07/08 02:17:36;;;;;;;5.45;2.45;;;19.20;99.90;;;;;;5110382;28;20117;-73
2022/07/08 02:20:05;;;;;;;3.95;2.83;;;19.20;99.90;;;;;;5091356;28;20027;-73
2022/07/08 02:22:31;;;;;;;7.82;2.80;;;19.20;99.90;;;;;;5087951;28;20032;-73
2022/07/08 02:24:57;;;;;;;4.53;2.30;;;19.10;99.90;;;;;;5091782;28;20027;-73
2022/07/08 02:27:22;;;;;;;4.00;2.40;;;19.00;99.90;;;;;;5091704;28;20020;-73
2022/07/08 02:29:48;;;;;;;5.97;2.67;;;19.00;99.90;;;;;;5095320;28;20444;-72
2022/07/08 02:32:14;;;;;;;4.22;2.47;;;18.90;99.90;;;;;;5098063;28;20131;-72
2022/07/08 02:34:40;;;;;;;2.88;2.25;;;18.80;99.90;;;;;;5080722;28;20047;-72
2022/07/08 02:37:06;;;;;;;3.80;2.70;;;18.80;99.90;;;;;;5083163;28;20029;-72
2022/07/08 02:39:32;;;;;;;8.60;2.38;;;18.70;99.90;;;;;;5082824;28;20020;-73
2022/07/08 02:41:58;;;;;;;4.97;2.60;;;18.70;99.90;;;;;;5084988;28;20029;-73
2022/07/08 02:44:24;;;;;;;4.32;2.50;;;18.70;99.90;;;;;;5085117;28;20058;-73
2022/07/08 02:46:49;;;;;;;7.75;2.70;;;18.60;99.90;;;;;;5085945;28;20025;-72
2022/07/08 02:49:15;;;;;;;5.43;2.78;;;18.60;99.90;;;;;;5089497;28;20024;-72
2022/07/08 02:51:41;;;;;;;5.70;2.95;;;18.50;99.90;;;;;;5089043;28;20065;-72
2022/07/08 02:54:08;;;;;;;4.55;2.90;;;18.50;99.90;;;;;;5094668;28;20031;-73
2022/07/08 02:56:34;;;;;;;6.15;2.83;;;18.40;99.90;;;;;;5091480;28;20028;-72
2022/07/08 02:59:01;;;;;;;7.22;2.88;;;18.40;99.90;;;;;;5096603;28;20087;-72
2022/07/08 03:01:28;;;;;;;3.25;2.75;;;18.30;99.90;;;;;;5095697;28;20113;-72
2022/07/08 03:03:54;;;;;;;5.68;2.88;;;18.30;99.90;;;;;;5098293;28;20020;-72
2022/07/08 03:06:20;;;;;;;4.57;3.05;;;18.30;99.90;;;;;;5095335;28;20476;-73
2022/07/08 03:08:46;;;;;;;7.60;3.00;;;18.20;99.90;;;;;;5094669;28;20017;-72
2022/07/08 03:11:12;;;;;;;6.95;2.90;;;18.20;99.90;;;;;;5094985;28;20056;-72
2022/07/08 03:13:37;;;;;;;6.05;3.03;;;18.20;99.90;;;;;;5087260;28;20023;-73
2022/07/08 03:16:05;;;;;;;5.85;3.00;;;18.10;99.90;;;;;;5088528;28;20032;-72
2022/07/08 03:18:35;;;;;;;5.53;3.22;;;18.10;99.90;;;;;;5091584;28;20031;-73
2022/07/08 03:21:03;;;;;;;3.20;2.83;;;18.10;99.90;;;;;;5094956;28;20024;-73
2022/07/08 03:23:30;;;;;;;4.90;2.85;;;18.00;99.90;;;;;;5095737;28;20035;-73
2022/07/08 03:25:55;;;;;;;10.80;3.30;;;18.00;99.90;;;;;;5093372;28;20039;-72
2022/07/08 03:28:21;;;;;;;7.72;3.45;;;18.00;99.90;;;;;;5097590;28;20020;-72
2022/07/08 03:30:47;;;;;;;4.78;3.28;;;18.00;99.90;;;;;;5097228;28;20016;-73
2022/07/08 03:33:13;;;;;;;5.47;3.47;;;17.90;99.90;;;;;;5095754;28;20081;-72
2022/07/08 03:35:39;;;;;;;10.07;3.60;;;17.90;99.90;;;;;;5099436;28;20484;-72
2022/07/08 03:38:05;;;;;;;3.35;2.83;;;17.80;99.90;;;;;;5094713;28;20507;-73
2022/07/08 03:43:15;;;;;;;8.13;3.70;;;17.80;99.90;;;;;;5082718;28;20070;-73
2022/07/08 03:45:41;;;;;;;5.50;3.35;;;17.80;99.90;;;;;;5088237;28;20039;-73
2022/07/08 03:48:07;;;;;;;6.35;3.38;;;17.80;99.90;;;;;;5084564;28;20025;-73
2022/07/08 03:50:33;;;;;;;6.38;3.35;;;17.70;99.90;;;;;;5097480;28;20036;-73
2022/07/08 03:52:59;;;;;;;10.55;4.00;;;17.70;99.90;;;;;;5088758;28;20027;-72
2022/07/08 03:55:25;;;;;;;7.63;3.42;;;17.60;99.90;;;;;;5091553;28;20020;-72
2022/07/08 03:57:52;;;;;;;5.07;3.05;;;17.60;99.90;;;;;;5091092;28;20119;-73
2022/07/08 04:00:19;;;;;;;5.88;3.60;;;17.60;99.90;;;;;;5094330;28;20016;-72
2022/07/08 04:02:46;;;;;;;6.78;3.72;;;17.50;99.90;;;;;;5095583;28;20024;-73
2022/07/08 04:05:12;;;;;;;4.40;3.17;;;17.50;99.90;;;;;;5095196;28;20044;-73
2022/07/08 04:07:39;;;;;;;7.10;3.28;;;17.50;99.90;;;;;;5096963;28;20059;-73
2022/07/08 04:10:05;;;;;;;9.40;4.00;;;17.50;99.90;;;;;;5080999;28;20020;-72
2022/07/08 04:12:31;;;;;;;4.97;3.05;;;17.40;99.90;;;;;;5080243;28;20021;-73
2022/07/08 04:14:57;;;;;;;9.30;3.42;;;17.50;99.90;;;;;;5083866;28;20119;-73
2022/07/08 04:17:23;;;;;;;10.05;3.92;;;17.40;99.90;;;;;;5118633;27;20025;-72
2022/07/08 04:19:49;;;;;;;8.70;3.63;;;17.40;99.90;;;;;;5087976;28;20027;-72
2022/07/08 04:22:15;;;;;;;6.65;3.30;;;17.40;99.90;;;;;;5082713;28;20043;-72
2022/07/08 04:24:41;;;;;;;6.63;3.42;;;17.40;99.90;;;;;;5088694;28;20028;-72
2022/07/08 04:27:06;;;;;;;4.53;3.33;;;17.30;99.90;;;;;;5087233;28;20389;-73
2022/07/08 04:29:33;;;;;;;6.10;2.95;;;17.30;99.90;;;;;;5092285;28;20020;-73
2022/07/08 04:31:59;;;;;;;8.48;3.70;;;17.30;99.90;;;;;;5089807;28;20031;-73
2022/07/08 04:34:25;;;;;;;11.60;3.45;;;17.20;99.90;;;;;;5094599;28;20492;-72
2022/07/08 04:36:51;;;;;;;8.75;3.67;;;17.20;99.90;;;;;;5095612;28;20051;-71
2022/07/08 04:39:16;;;;;;;5.18;3.55;;;17.20;99.90;;;;;;5096532;28;20027;-72
2022/07/08 04:41:42;;;;;;;8.73;3.70;;;17.20;99.90;;;;;;5097034;28;20024;-72
2022/07/08 04:44:08;;;;;;;5.47;3.97;;;17.20;99.90;;;;;;5082621;28;20017;-72
2022/07/08 04:46:34;;;;;;;7.30;4.03;;;17.20;99.90;;;;;;5081320;28;20032;-73
2022/07/08 04:49:00;;;;;;;7.57;3.38;;;17.20;99.90;;;;;;5086094;28;20021;-73
2022/07/08 04:51:25;;;;;;;8.52;3.95;;;17.20;99.90;;;;;;5081939;28;20497;-73
2022/07/08 04:53:51;;;;;;;6.10;3.28;;;17.20;99.90;;;;;;5088569;28;20069;-73
2022/07/08 04:56:17;;;;;;;9.38;3.55;;;17.20;99.90;;;;;;5085332;28;20024;-72
2022/07/08 04:58:43;;;;;;;5.63;3.47;;;17.20;99.90;;;;;;5091116;28;20030;-72
2022/07/08 05:01:08;;;;;;;5.57;3.72;;;17.20;99.90;;;;;;5087721;28;20480;-72
2022/07/08 05:03:34;;;;;;;6.85;3.42;;;17.30;99.90;;;;;;5083898;28;20020;-72
2022/07/08 05:06:00;;;;;;;7.00;3.83;;;17.30;99.90;;;;;;5093489;28;20107;-72
2022/07/08 05:08:27;;;;;;;4.00;3.17;;;17.30;99.90;;;;;;5095528;28;20055;-72
2022/07/08 05:10:53;;;;;;;8.75;4.07;;;17.40;99.90;;;;;;5097301;28;20023;-73
2022/07/08 05:13:18;;;;;;;7.03;3.63;;;17.40;99.90;;;;;;5078365;28;20017;-72
2022/07/08 05:15:44;;;;;;;9.57;4.15;;;17.40;99.90;;;;;;5085512;28;20024;-72
2022/07/08 05:18:10;;;;;;;6.10;4.00;;;17.50;99.90;;;;;;5081523;28;20031;-73
2022/07/08 05:20:36;;;;;;;10.35;4.22;;;17.50;99.90;;;;;;5080492;28;20020;-72
2022/07/08 05:23:03;;;;;;;10.13;3.92;;;17.50;99.90;;;;;;5085674;28;20031;-72
2022/07/08 05:25:29;;;;;;;9.38;3.78;;;17.60;99.90;;;;;;5082446;28;20520;-73
2022/07/08 05:27:55;;;;;;;8.48;3.83;;;17.60;99.90;;;;;;5088442;28;20399;-72
2022/07/08 05:30:21;;;;;;;7.28;4.47;;;17.60;99.90;;;;;;5084661;28;20465;-72
2022/07/08 05:32:46;;;;;;;10.48;3.78;;;17.60;99.90;;;;;;5091748;28;20048;-73
2022/07/08 05:35:12;;;;;;;6.68;3.70;;;17.70;99.90;;;;;;5089709;28;20099;-73
2022/07/08 05:37:38;;;;;;;8.02;4.53;;;17.70;99.90;;;;;;5095758;28;20024;-73
2022/07/08 05:40:11;;;;;;;8.05;3.72;;;17.80;99.90;;;;;;5090034;28;20507;-73
2022/07/08 05:42:37;;;;;;;9.30;4.75;;;17.80;99.90;;;;;;5084918;28;20174;-73
2022/07/08 05:45:05;;;;;;;6.13;3.60;;;17.90;99.90;;;;;;5090844;28;20059;-73
2022/07/08 05:47:31;;;;;;;9.30;4.25;;;17.90;99.90;;;;;;5082950;28;20024;-73
2022/07/08 05:49:56;;;;;;;5.45;3.40;;;18.10;99.90;;;;;;5090497;28;20046;-72
2022/07/08 05:52:22;;;;;;;9.02;4.47;;;18.10;99.90;;;;;;5094684;28;20576;-73
2022/07/08 05:54:48;;;;;;;7.00;4.05;;;18.20;99.90;;;;;;5096504;28;20119;-73
2022/07/08 05:57:15;;;;;;;8.75;4.32;;;18.10;99.90;;;;;;5084289;28;20027;-73
2022/07/08 05:59:42;;;;;;;10.43;4.32;;;18.20;99.90;;;;;;5085466;28;20058;-73
2022/07/08 06:02:09;;;;;;;6.82;4.15;;;18.20;99.90;;;;;;5080162;28;20032;-73
2022/07/08 06:04:35;;;;;;;6.43;3.97;;;18.30;99.90;;;;;;5084827;28;20107;-73
2022/07/08 06:07:00;;;;;;;7.03;4.18;;;18.40;99.90;;;;;;5089487;28;20063;-73
2022/07/08 06:09:26;;;;;;;7.38;4.43;;;18.50;99.90;;;;;;5086852;28;20016;-73
2022/07/08 06:11:52;;;;;;;8.75;4.05;;;18.50;99.90;;;;;;5092418;28;20020;-72
2022/07/08 06:14:18;;;;;;;6.82;3.70;;;18.60;99.90;;;;;;5093426;28;20099;-73
2022/07/08 06:16:47;;;;;;;9.73;4.47;;;18.60;99.90;;;;;;5095189;28;20031;-73
2022/07/08 06:19:16;;;;;;;6.85;3.85;;;18.70;99.90;;;;;;5093737;28;20016;-72
2022/07/08 06:21:43;;;;;;;5.82;3.83;;;18.70;99.90;;;;;;5097271;28;20032;-73
2022/07/08 06:24:09;;;;;;;7.93;4.70;;;18.80;99.90;;;;;;5095669;28;20101;-73
2022/07/08 06:26:36;;;;;;;9.85;5.15;;;18.80;99.90;;;;;;5099244;28;20017;-73
2022/07/08 06:29:03;;;;;;;13.63;4.78;;;18.90;99.90;;;;;;5095420;28;20016;-73
2022/07/08 06:31:29;;;;;;;9.40;4.82;;;19.00;99.90;;;;;;5096382;28;20035;-73
2022/07/08 06:33:58;;;;;;;11.95;4.90;;;19.00;99.90;;;;;;5096494;28;20021;-73
2022/07/08 06:36:25;;;;;;;10.45;3.95;;;19.00;99.90;;;;;;5087154;28;20024;-73
2022/07/08 06:38:52;;;;;;;9.27;4.18;;;19.10;99.90;;;;;;5087160;28;20028;-73
2022/07/08 06:41:18;;;;;;;8.77;4.50;;;19.00;99.90;;;;;;5092602;28;20400;-72
2022/07/08 06:43:45;;;;;;;8.65;4.35;;;19.20;99.90;;;;;;5093077;28;20029;-73
2022/07/08 06:46:11;;;;;;;8.80;4.45;;;19.20;99.90;;;;;;5094733;28;20051;-73
2022/07/08 06:48:37;;;;;;;11.88;4.40;;;19.20;99.90;;;;;;5091458;28;20027;-73
2022/07/08 06:51:02;;;;;;;11.63;4.53;;;19.20;99.90;;;;;;5097080;28;20127;-73
2022/07/08 06:54:34;;;;;;;7.15;4.15;;;19.30;99.90;;;;;;5094947;28;20036;-73
2022/07/08 06:56:14;;;;;;;6.90;4.53;;;19.30;99.90;;;;;;5099277;28;20103;-73
2022/07/08 06:58:40;;;;;;;13.05;4.75;;;19.40;99.90;;;;;;5096204;28;20028;-73
2022/07/08 07:01:06;;;;;;;8.55;4.30;;;19.40;99.90;;;;;;5096434;28;20038;-73
2022/07/08 07:03:32;;;;;;;7.75;4.85;;;19.40;99.90;;;;;;5095565;28;20024;-73
2022/07/08 07:05:57;;;;;;;12.73;5.28;;;19.50;99.90;;;;;;5097722;28;20052;-73
2022/07/08 07:08:23;;;;;;;6.72;3.95;;;19.70;99.90;;;;;;5090723;28;20514;-73
2022/07/08 07:10:49;;;;;;;8.65;4.15;;;19.70;99.90;;;;;;5093633;28;20012;-74
2022/07/08 07:13:15;;;;;;;6.68;3.75;;;19.70;99.90;;;;;;5099491;28;20031;-73
2022/07/08 07:15:41;;;;;;;7.65;4.25;;;19.80;99.90;;;;;;5097996;28;20098;-73
2022/07/08 07:18:08;;;;;;;5.50;3.47;;;19.90;99.90;;;;;;5092041;28;20028;-73
2022/07/08 07:20:34;;;;;;;9.60;4.57;;;19.90;99.90;;;;;;5090226;28;20039;-73
2022/07/08 07:23:00;;;;;;;10.55;4.60;;;20.00;99.90;;;;;;5098680;28;20032;-73
2022/07/08 07:25:26;;;;;;;7.97;4.15;;;20.10;99.90;;;;;;5098589;28;20090;-73
2022/07/08 07:27:52;;;;;;;7.50;3.30;;;20.10;99.90;;;;;;5087439;28;20044;-73
2022/07/08 07:30:20;;;;;;;8.63;3.63;;;20.20;99.90;;;;;;5094333;28;20434;-73
2022/07/08 07:32:46;;;;;;;8.68;3.22;;;20.30;99.90;;;;;;5096814;28;20047;-72
2022/07/08 07:35:12;;;;;;;12.98;4.13;;;20.30;99.90;;;;;;5098237;28;20008;-74
2022/07/08 07:37:38;;;;;;;7.82;3.85;;;20.40;99.90;;;;;;5098089;28;20024;-72
2022/07/08 07:40:07;;;;;;;6.80;2.90;;;20.40;99.90;;;;;;5098309;28;20484;-73
2022/07/08 07:42:33;;;;;;;8.98;3.63;;;20.50;99.90;;;;;;5096923;28;20020;-72
2022/07/08 07:44:58;;;;;;;6.97;2.65;;;20.60;99.90;;;;;;5097933;28;20016;-74
2022/07/08 07:47:25;;;;;;;7.88;3.38;;;20.70;99.90;;;;;;5097829;28;20028;-73
2022/07/08 07:49:50;;;;;;;7.35;3.10;;;20.70;99.90;;;;;;5087452;28;20012;-72
2022/07/08 07:52:16;;;;;;;5.60;2.63;;;20.80;99.90;;;;;;5078899;28;20496;-73
2022/07/08 07:54:42;;;;;;;9.38;4.28;;;20.90;99.90;;;;;;5078257;28;20036;-74
2022/07/08 07:57:08;;;;;;;7.43;2.80;;;21.00;99.90;;;;;;5080187;28;20560;-75
2022/07/08 07:59:34;;;;;;;5.07;3.22;;;21.10;99.90;;;;;;5087502;28;20024;-74
2022/07/08 08:02:00;;;;;;;6.75;3.38;;;21.10;99.90;;;;;;5095333;28;20048;-74
2022/07/08 08:04:25;;;;;;;9.00;3.33;;;21.10;99.90;;;;;;5097288;28;20028;-74
2022/07/08 08:06:51;;;;;;;7.28;2.70;;;21.20;99.90;;;;;;5097862;28;20065;-74
2022/07/08 08:09:17;;;;;;;8.07;2.70;;;21.30;99.90;;;;;;5096454;28;20016;-74
2022/07/08 08:11:43;;;;;;;6.30;3.33;;;21.40;99.90;;;;;;5083305;28;20078;-74
2022/07/08 08:14:09;;;;;;;10.15;3.42;;;21.50;99.90;;;;;;5080721;28;20099;-73
2022/07/08 08:16:35;;;;;;;4.78;2.40;;;21.60;99.90;;;;;;5089773;28;20653;-73
2022/07/08 08:19:00;;;;;;;5.72;2.60;;;21.70;99.90;;;;;;5077576;28;20032;-74
2022/07/08 08:21:26;;;;;;;5.80;2.67;;;21.70;99.90;;;;;;5090674;28;20088;-74
2022/07/08 08:23:52;;;;;;;7.63;3.22;;;21.80;99.90;;;;;;5075218;28;20031;-74
2022/07/08 08:26:18;;;;;;;10.35;2.90;;;21.80;99.90;;;;;;5080956;28;21662;-73
2022/07/08 08:28:44;;;;;;;5.65;3.00;;;21.90;99.90;;;;;;5094909;28;20034;-73
2022/07/08 08:31:10;;;;;;;7.57;3.20;;;22.10;99.90;;;;;;5093682;28;20009;-74
2022/07/08 08:33:35;;;;;;;5.20;3.05;;;22.20;99.90;;;;;;5095455;28;20473;-73
2022/07/08 08:36:02;;;;;;;8.85;2.60;;;22.20;99.90;;;;;;5088039;28;20024;-74
2022/07/08 08:38:28;;;;;;;6.30;2.78;;;22.30;99.90;;;;;;5088788;28;20016;-73
2022/07/08 08:41:01;;;;;;;4.32;2.45;;;22.40;99.90;;;;;;5089685;28;20034;-73
2022/07/08 08:43:27;;;;;;;6.47;2.45;;;22.50;99.90;;;;;;5085255;28;20028;-74
2022/07/08 08:45:54;;;;;;;10.13;3.10;;;22.70;99.90;;;;;;5128682;27;20020;-73
2022/07/08 08:48:24;;;;;;;7.72;3.20;;;22.60;99.90;;;;;;5093582;28;20020;-73
2022/07/08 08:50:56;;;;;;;5.55;2.55;;;22.60;99.90;;;;;;5091898;28;20044;-73
2022/07/08 08:53:40;;;;;;;9.60;2.30;;;22.70;99.90;;;;;;5094187;28;20017;-73
2022/07/08 08:56:12;;;;;;;6.38;2.67;;;22.90;99.90;;;;;;5076066;28;20115;-74
2022/07/08 08:58:46;;;;;;;9.88;3.05;;;23.00;99.90;;;;;;5087581;28;20089;-72
2022/07/08 09:01:13;;;;;;;5.63;2.00;;;23.10;99.90;;;;;;5091435;28;20030;-73
2022/07/08 09:03:39;;;;;;;5.18;2.90;;;23.20;99.90;;;;;;5096871;28;20016;-73
2022/07/08 09:06:05;;;;;;;7.90;2.10;;;23.20;99.90;;;;;;5088573;28;20032;-73
2022/07/08 09:08:32;;;;;;;5.22;1.80;;;23.20;99.90;;;;;;5092799;28;20020;-73
2022/07/08 09:10:59;;;;;;;3.47;1.90;;;23.20;99.90;;;;;;5091550;28;20111;-73
2022/07/08 09:13:25;;;;;;;5.78;2.47;;;23.20;99.90;;;;;;5095860;28;20027;-73
2022/07/08 09:15:57;;;;;;;5.10;2.60;;;23.40;99.90;;;;;;5090968;28;20039;-74
2022/07/08 09:18:31;;;;;;;5.68;2.38;;;23.40;99.90;;;;;;5095504;28;20024;-73
2022/07/08 09:20:58;;;;;;;4.90;1.60;;;23.50;99.90;;;;;;5085042;28;20029;-73
2022/07/08 09:23:28;;;;;;;4.78;2.30;;;23.50;99.90;;;;;;5089824;28;20097;-74
2022/07/08 09:25:55;;;;;;;;;;;23.40;99.90;;;;;;5087426;28;20035;-74
2022/07/08 09:28:34;;;;;;;5.43;1.73;;;23.50;99.90;;;;;;5084642;28;19908;-74
2022/07/08 09:31:08;;;;;;;3.70;1.60;;;23.70;99.90;;;;;;5088378;28;20017;-75
2022/07/08 09:33:35;;;;;;;5.53;2.10;;;23.80;99.90;;;;;;5091572;28;20032;-74
2022/07/08 09:36:03;;;;;;;5.05;1.75;;;24.00;99.90;;;;;;5091735;28;20046;-74
2022/07/08 09:38:32;;;;;;;3.40;1.40;;;24.10;99.90;;;;;;5089368;28;20052;-74
2022/07/08 09:41:02;;;;;;;4.30;2.25;;;24.20;99.90;;;;;;5082487;28;20027;-73
2022/07/08 09:43:28;;;;;;;2.72;1.42;;;24.30;99.90;;;;;;5091680;28;20028;-73
2022/07/08 09:45:54;;;;;;;3.67;1.90;;;24.30;99.90;;;;;;5093588;28;20387;-73
2022/07/08 09:48:24;;;;;;;4.20;1.65;;;24.30;99.90;;;;;;5096809;28;20430;-74
2022/07/08 09:50:50;;;;;;;5.57;1.35;;;24.40;99.90;;;;;;5091913;28;20028;-74
2022/07/08 09:53:24;;;;;;;6.57;1.45;;;24.40;99.90;;;;;;5083467;28;20021;-72
2022/07/08 09:55:52;;;;;;;4.80;1.30;;;24.30;99.90;;;;;;5089928;28;20526;-72
2022/07/08 09:58:20;;;;;;;4.28;1.40;;;24.40;99.90;;;;;;5080843;28;20024;-73
2022/07/08 10:00:49;;;;;;;3.33;1.30;;;24.40;99.90;;;;;;5078686;28;20020;-72
2022/07/08 10:03:16;;;;;;;3.67;1.75;;;24.40;99.90;;;;;;5092625;28;20032;-73
2022/07/08 10:05:43;;;;;;;4.07;1.33;;;24.60;99.90;;;;;;5083990;28;20081;-73
2022/07/08 10:08:10;;;;;;;2.50;1.42;;;24.80;99.90;;;;;;5086236;28;20023;-73
2022/07/08 10:10:38;;;;;;;3.33;1.60;;;24.60;99.90;;;;;;5086491;28;20028;-73
2022/07/08 10:13:04;;;;;;;4.68;1.73;;;24.80;99.90;;;;;;5088516;28;20486;-73
2022/07/08 10:15:32;;;;;;;4.18;2.10;;;24.80;99.90;;;;;;5089562;28;20025;-74
2022/07/08 10:18:25;;;;;;;4.30;1.58;;;24.80;99.90;;;;;;5090558;28;20365;-73
2022/07/08 10:20:55;;;;;;;4.03;1.60;;;24.80;99.90;;;;;;5086286;28;20118;-73
2022/07/08 10:23:42;;;;;;;4.07;1.80;;;24.80;99.90;;;;;;5095822;28;20020;-74
2022/07/08 10:26:10;;;;;;;7.57;2.53;;;24.70;99.90;;;;;;5092322;28;20400;-74
2022/07/08 10:28:41;;;;;;;3.08;1.50;;;24.70;99.90;;;;;;5077396;28;20032;-73
2022/07/08 10:31:24;;;;;;;7.22;2.10;;;24.70;99.90;;;;;;5078544;28;20021;-73
2022/07/08 10:33:53;;;;;;;6.53;1.98;;;24.80;99.90;;;;;;5080419;28;20021;-73
2022/07/08 10:36:21;;;;;;;7.63;1.52;;;24.80;99.90;;;;;;5083978;28;20021;-73
2022/07/08 10:38:47;;;;;;;8.02;1.80;;;24.90;99.90;;;;;;5084068;28;20033;-73
2022/07/08 10:41:19;;;;;;;6.60;1.98;;;24.90;99.90;;;;;;5087191;28;20534;-73
2022/07/08 10:43:57;;;;;;;6.15;2.10;;;24.90;99.90;;;;;;5087293;28;20012;-73
2022/07/08 10:46:26;;;;;;;8.02;1.85;;;25.10;99.90;;;;;;5088651;28;20032;-74
2022/07/08 10:48:57;;;;;;;5.88;2.30;;;25.20;99.90;;;;;;5091085;28;20063;-73
2022/07/08 10:51:29;;;;;;;4.50;2.22;;;25.20;99.50;;;;;;5093396;28;20076;-72
2022/07/08 10:54:02;;;;;;;7.13;1.98;;;25.20;99.80;;;;;;5087751;28;20540;-72
2022/07/08 10:56:48;;;;;;;5.45;1.90;;;25.30;99.40;;;;;;5097839;28;20024;-74
2022/07/08 10:59:18;;;;;;;3.55;1.73;;;25.20;97.90;;;;;;5085155;28;20055;-75
2022/07/08 11:02:04;;;;;;;2.58;1.48;;;25.10;99.20;;;;;;5091888;28;20066;-73
2022/07/08 11:04:36;;;;;;;6.25;2.03;;;25.30;99.50;;;;;;5093635;28;20484;-72
2022/07/08 11:07:33;;;;;;;10.55;3.72;;;25.50;99.00;;;;;;5081098;28;20016;-73
2022/07/08 11:10:13;;;;;;;5.70;2.15;;;25.60;98.70;;;;;;5083817;28;20026;-73
2022/07/08 11:12:40;;;;;;;4.55;2.22;;;25.70;98.30;;;;;;5093173;28;20028;-73
2022/07/08 11:15:11;;;;;;;9.20;2.17;;;25.80;98.10;;;;;;5085960;28;20064;-73
2022/07/08 11:17:40;;;;;;;5.22;2.20;;;25.70;98.10;;;;;;5084014;28;20032;-74
2022/07/08 11:20:18;;;;;;;3.35;1.90;;;25.60;98.20;;;;;;5090422;28;20031;-72
2022/07/08 11:22:45;;;;;;;5.30;1.95;;;25.70;97.80;;;;;;5087847;28;20043;-72
2022/07/08 11:25:15;;;;;;;6.13;2.05;;;25.70;98.10;;;;;;5092333;28;20024;-73
2022/07/08 11:27:41;;;;;;;;;;;25.70;97.70;;;;;;5092135;28;20028;-73
2022/07/08 11:30:08;;;;;;;6.35;2.58;;;25.60;97.30;;;;;;5095403;28;19904;-72
2022/07/08 11:32:34;;;;;;;5.15;2.00;;;25.60;97.30;;;;;;5099151;28;20020;-73
2022/07/08 11:35:00;;;;;;;4.45;2.47;;;25.80;96.90;;;;;;5094503;28;20024;-73
2022/07/08 11:37:26;;;;;;;5.97;1.92;;;25.80;96.90;;;;;;5093016;28;20031;-72
2022/07/08 11:39:52;;;;;;;3.08;1.67;;;25.90;96.70;;;;;;5091709;28;20025;-73
2022/07/08 11:42:19;;;;;;;7.25;2.38;;;26.10;96.60;;;;;;5089196;28;20111;-72
2022/07/08 11:44:46;;;;;;;4.28;2.20;;;26.20;95.70;;;;;;5087071;28;20054;-74
2022/07/08 11:47:19;;;;;;;4.00;1.80;;;26.40;95.00;;;;;;5096626;28;20026;-72
2022/07/08 11:49:47;;;;;;;4.75;2.33;;;26.40;93.90;;;;;;5090419;28;20385;-72
2022/07/08 11:52:18;;;;;;;4.15;1.90;;;26.10;93.80;;;;;;5094271;28;20032;-72
2022/07/08 11:54:48;;;;;;;4.97;2.03;;;26.30;95.70;;;;;;5093567;28;20024;-72
2022/07/08 11:57:15;;;;;;;7.35;2.22;;;26.40;93.80;;;;;;5086102;28;20020;-73
2022/07/08 11:59:43;;;;;;;4.00;1.88;;;26.50;93.90;;;;;;5096654;28;20058;-73
2022/07/08 12:02:11;;;;;;;5.25;2.13;;;26.60;93.00;;;;;;5097197;28;20024;-73
2022/07/08 12:04:37;;;;;;;3.38;1.77;;;26.60;93.50;;;;;;5098211;28;20464;-73
2022/07/08 12:07:22;;;;;;;6.88;2.83;;;26.70;93.40;;;;;;5081296;28;20092;-72
2022/07/08 12:09:58;;;;;;;5.35;2.30;;;26.50;93.70;;;;;;5087534;28;20049;-73
2022/07/08 12:12:26;;;;;;;5.10;2.13;;;26.70;94.10;;;;;;5099093;28;20016;-73
2022/07/08 12:14:53;;;;;;;7.32;2.42;;;26.80;93.60;;;;;;5097407;28;20023;-72
2022/07/08 12:17:29;;;;;;;4.68;2.33;;;26.90;93.70;;;;;;5091152;28;20048;-72
2022/07/08 12:19:56;;;;;;;4.10;2.35;;;27.00;93.10;;;;;;5096172;28;20119;-73
2022/07/08 12:22:47;;;;;;;4.32;2.08;;;27.00;92.70;;;;;;5096956;28;20028;-73
2022/07/08 12:25:18;;;;;;;5.53;1.90;;;27.10;92.40;;;;;;5079230;28;20366;-73
2022/07/08 12:27:55;;;;;;;4.22;2.67;;;27.30;92.30;;;;;;5093706;28;20024;-72
2022/07/08 12:30:29;;;;;;;4.88;2.70;;;27.40;91.80;;;;;;5081086;28;20392;-72
2022/07/08 12:33:03;;;;;;;5.00;1.92;;;27.50;92.10;;;;;;5085008;28;20016;-73
2022/07/08 12:35:31;;;;;;;5.68;2.40;;;27.60;91.70;;;;;;5084019;28;20028;-72
2022/07/08 12:38:08;;;;;;;5.57;2.90;;;27.50;92.40;;;;;;5087405;28;20369;-72
2022/07/08 12:40:42;;;;;;;3.78;1.80;;;27.60;92.20;;;;;;5087871;28;20028;-73
2022/07/08 12:43:11;;;;;;;5.47;1.90;;;27.60;90.60;;;;;;5092289;28;20020;-72
2022/07/08 12:45:37;;;;;;;3.35;1.95;;;27.60;88.80;;;;;;5093222;28;20032;-72
2022/07/08 12:48:04;;;;;;;4.45;1.75;;;27.70;88.10;;;;;;5093109;28;20020;-73
2022/07/08 12:50:31;;;;;;;4.15;2.03;;;27.80;87.10;;;;;;5095333;28;20444;-72